• Join FlightAware (Why Join?)
  • Login
  • US Flag 
07:36PM EDT


 

Airport Tracker/Info


-or-


 

Live Flight TrackerFlight Track Log ✈ UAL86 ✈ 06-May-2013 ✈ KEWR - ZSPD / PVG

Flight Track Log - Related Links

Times and Time Zones

All times are in EDT time to prevent confusion due to time zone crossing. See the UAL86 flight status page for this flight to view local times or setup timezone preferences in your user account.

Time Position Orientation Groundspeed Altitude Reporting Facility
EDT Latitude Longitude Course Direction KTS MPH feet Rate Location/Type
11:09AM 40.7290 -74.1350 205° Southwest 184 212 1,800  Level FlightAware
11:09AM 40.7390 -74.1320 13° North 195 224 2,000 1,020 Climbing FlightAware
11:10AM 40.7504 -74.1356 347° North 203 234 2,200 1,500 Climbing FlightAware ADS-B
11:10AM 40.7533 -74.1378 330° Northwest 203 234 2,300 1,500 Climbing FlightAware ADS-B
11:10AM 40.7564 -74.1407 325° Northwest 206 237 2,400 1,500 Climbing FlightAware ADS-B
11:10AM 40.7653 -74.1506 320° Northwest 203 234 2,700 1,740 Climbing FlightAware ADS-B
11:10AM 40.7759 -74.1634 318° Northwest 205 236 3,200 1,140 Climbing FlightAware ADS-B
11:10AM 40.7871 -74.1770 317° Northwest 222 255 3,300 720 Climbing FlightAware ADS-B
11:11AM 40.7993 -74.1918 317° Northwest 239 275 3,600 960 Climbing FlightAware ADS-B
11:11AM 40.8126 -74.2075 318° Northwest 252 290 3,800 1,140 Climbing FlightAware ADS-B
11:11AM 40.8262 -74.2232 319° Northwest 266 306 4,200 1,800 Climbing FlightAware ADS-B
11:11AM 40.8400 -74.2388 319° Northwest 265 305 4,700 1,980 Climbing FlightAware ADS-B
11:11AM 40.8406 -74.2394 323° Northwest 270 311 4,700 2,220 Level FlightAware ADS-B
11:12AM 40.8552 -74.2559 319° Northwest 271 312 5,300 2,400 Climbing FlightAware ADS-B
11:12AM 40.8696 -74.2725 319° Northwest 275 316 5,900 1,980 Climbing FlightAware ADS-B
11:12AM 40.8940 -74.3000 320° Northwest 278 320 6,800 1,860 Climbing FlightAware
11:13AM 40.9110 -74.3160 325° Northwest 286 329 7,300 2,520 Climbing FlightAware
11:13AM 40.9233 -74.3226 338° Northwest 277 319 7,700 2,160 Climbing FlightAware ADS-B
11:13AM 40.9672 -74.3456 338° Northwest 295 339 8,800 1,860 Climbing FlightAware ADS-B
11:14AM 40.9828 -74.3503 347° North 299 344 9,200 1,860 Climbing FlightAware ADS-B
11:14AM 40.9884 -74.3512 353° North 298 343 9,300 1,500 Climbing FlightAware ADS-B
11:14AM 40.9941 -74.3518 355° North 299 344 9,400 1,680 Climbing FlightAware ADS-B
11:14AM 40.9984 -74.3520 358° North 299 344 9,500 2,220 Climbing FlightAware ADS-B
11:14AM 41.0053 -74.3522 359° North 299 344 9,700 2,400 Climbing FlightAware ADS-B
11:14AM 41.0125 -74.3521 North 300 345 9,900 1,500 Climbing FlightAware ADS-B
11:14AM 41.0278 -74.3524 359° North 299 344 10,100 780 Climbing FlightAware ADS-B
11:14AM 41.0333 -74.3524 360° North 305 351 10,100 660 Level FlightAware ADS-B
11:15AM 41.0790 -74.3527 360° North 327 376 10,500 780 Climbing FlightAware ADS-B
11:15AM 41.1534 -74.3535 360° North 372 428 11,100 420 Climbing FlightAware ADS-B
11:16AM 41.1960 -74.3550 358° North 368 423 11,100 1,560 Level FlightAware
11:16AM 41.2727 -74.3553 360° North 388 447 12,900 2,460 Climbing FlightAware ADS-B
11:17AM 41.3477 -74.3563 359° North 393 452 14,300 1,740 Climbing FlightAware ADS-B
11:18AM 41.4097 -74.3820 343° North 400 460 15,200 1,500 Climbing FlightAware ADS-B
11:18AM 41.4315 -74.4143 312° West 402 463 15,700 1,560 Climbing FlightAware ADS-B
11:19AM 41.4785 -74.5220 300° West 409 471 17,000 1,500 Climbing FlightAware ADS-B
11:19AM 41.5070 -74.5897 299° West 412 474 17,700 1,380 Climbing FlightAware ADS-B
11:20AM 41.5373 -74.6604 300° West 417 480 18,500 1,320 Climbing FlightAware ADS-B
11:20AM 41.5669 -74.7286 300° West 425 489 19,100 1,080 Climbing FlightAware ADS-B
11:21AM 41.5858 -74.7698 302° West 427 491 19,400 1,140 Climbing FlightAware ADS-B
11:21AM 41.6410 -74.8470 314° West 428 493 20,300 1,200 Climbing FlightAware
11:22AM 41.7070 -74.9200 320° Northwest 430 495 21,200 1,200 Climbing FlightAware
11:23AM 41.7710 -74.9900 321° Northwest 436 502 22,000 1,200 Climbing FlightAware
11:24AM 41.8330 -75.0590 320° Northwest 440 506 22,800 1,200 Climbing FlightAware
11:24AM 41.9070 -75.1410 320° Northwest 444 511 23,700 1,080 Climbing FlightAware
11:25AM 41.9660 -75.2070 320° Northwest 446 513 24,400 960 Climbing FlightAware
11:26AM 42.0340 -75.2830 320° Northwest 449 517 25,100 1,020 Climbing FlightAware
11:27AM 42.1350 -75.3740 326° Northwest 452 520 26,100 960 Climbing FlightAware
11:27AM 42.2030 -75.4280 330° Northwest 446 513 26,700 960 Climbing FlightAware
11:28AM 42.2820 -75.4910 329° Northwest 456 525 27,400 840 Climbing FlightAware
11:29AM 42.3540 -75.5480 330° Northwest 458 527 27,900 660 Climbing FlightAware
11:29AM 42.4190 -75.6010 329° Northwest 465 535 28,300 660 Climbing FlightAware
11:30AM 42.5030 -75.6680 330° Northwest 470 541 28,800 660 Climbing FlightAware
11:31AM 42.5770 -75.7280 329° Northwest 472 543 29,300 720 Climbing FlightAware
11:31AM 42.6640 -75.7980 329° Northwest 474 545 29,900 420 Climbing FlightAware
11:32AM 42.7460 -75.8650 329° Northwest 480 552 30,000 60 Climbing FlightAware
11:33AM 42.8260 -75.9300 329° Northwest 480 552 30,000  Level FlightAware
11:34AM 42.9090 -75.9980 329° Northwest 481 554 30,000  Level FlightAware
11:34AM 42.9770 -76.0540 329° Northwest 482 555 30,000  Level FlightAware
11:35AM 43.0650 -76.1260 329° Northwest 482 555 30,000  Level FlightAware
11:36AM 43.1490 -76.1860 332° Northwest 483 556 30,000 360 Level FlightAware
11:37AM 43.2740 -76.1930 358° North 486 559 30,600 600 Climbing FlightAware
11:37AM 43.3650 -76.1830 North 481 554 31,000 240 Climbing FlightAware
11:38AM 43.4650 -76.1710 North 482 555 31,000  Level FlightAware
11:39AM 43.5630 -76.1610 North 482 555 31,000  Level FlightAware
11:39AM 43.6540 -76.1510 North 482 555 31,000  Level FlightAware
11:40AM 43.7430 -76.1410 North 482 555 31,000  Level FlightAware
11:41AM 43.8410 -76.1300 North 482 555 31,000  Level FlightAware
11:42AM 43.9300 -76.1210 North 482 555 31,000  Level FlightAware
11:42AM 44.0210 -76.1100 North 482 555 31,000  Level FlightAware
11:43AM 44.1210 -76.0990 North 481 554 31,000  Level FlightAware
11:44AM 44.2100 -76.0900 North 482 555 31,000  Level FlightAware
11:44AM 44.3080 -76.0780 North 482 555 31,000  Level FlightAware
11:45AM 44.3940 -76.0690 North 481 554 31,000  Level FlightAware
11:46AM 44.5070 -76.0560 North 479 551 31,000  Level FlightAware
11:46AM 44.5960 -76.0460 North 477 549 31,000  Level FlightAware
11:47AM 44.6930 -76.0350 North 477 549 31,000  Level FlightAware
11:48AM 44.7780 -76.0250 North 478 550 31,000  Level FlightAware
11:49AM 44.8690 -76.0150 North 477 549 31,000  Level FlightAware
11:49AM 44.9700 -76.0040 North 476 548 31,000  Level FlightAware
11:50AM 45.0570 -76.0100 357° North 474 545 31,000  Level FlightAware
11:51AM 45.1540 -76.0280 353° North 476 548 31,000  Level FlightAware
11:51AM 45.2370 -76.0430 353° North 477 549 31,000  Level FlightAware
11:52AM 45.3280 -76.0600 353° North 475 547 31,000  Level FlightAware
11:53AM 45.3990 -76.0730 353° North 474 545 31,000  Level FlightAware
11:53AM 45.5120 -76.0940 353° North 472 543 31,000  Level FlightAware
11:54AM 45.6120 -76.1130 352° North 473 544 31,000  Level FlightAware
11:55AM 45.6820 -76.1260 353° North 473 544 31,000  Level FlightAware
11:55AM 45.7640 -76.1410 353° North 475 547 31,000  Level FlightAware
11:56AM 45.8800 -76.1620 353° North 474 545 31,000  Level FlightAware
11:57AM 45.9800 -76.1810 352° North 474 545 31,000  Level FlightAware
11:58AM 46.0680 -76.1980 352° North 474 545 31,000  Level FlightAware
11:58AM 46.1550 -76.2140 353° North 473 544 31,000  Level FlightAware
11:59AM 46.2370 -76.2300 352° North 474 545 31,000  Level FlightAware
12:00PM 46.3180 -76.2450 353° North 476 548 31,000  Level FlightAware
12:00PM 46.4210 -76.2650 352° North 477 549 31,000  Level FlightAware
12:01PM 46.5470 -76.2890 353° North 477 549 31,000  Level FlightAware
12:02PM 46.6370 -76.3070 352° North 477 549 31,000  Level FlightAware
12:03PM 46.7120 -76.3220 352° North 477 549 31,000  Level FlightAware
12:03PM 46.7860 -76.3380 352° North 477 549 31,000  Level FlightAware
12:04PM 46.8600 -76.3530 352° North 477 549 31,000  Level FlightAware
12:05PM 46.9350 -76.3680 352° North 477 549 31,000  Level FlightAware
12:06PM 47.0270 -76.3870 352° North 477 549 31,000  Level FlightAware
12:06PM 47.1020 -76.4030 352° North 477 549 31,000  Level FlightAware
12:07PM 47.1760 -76.4180 352° North 477 549 31,000  Level FlightAware
12:08PM 47.2500 -76.4330 352° North 477 549 31,000  Level FlightAware
12:08PM 47.3250 -76.4490 352° North 477 549 31,000  Level FlightAware
12:09PM 47.4170 -76.4680 352° North 477 549 31,000  Level FlightAware
12:10PM 47.4920 -76.4840 352° North 477 549 31,000  Level FlightAware
12:10PM 47.5660 -76.4990 352° North 477 549 31,000  Level FlightAware
12:11PM 47.6400 -76.5140 352° North 477 549 31,000  Level FlightAware
12:12PM 47.9667 -76.5667 352° North 470 541 31,000  Level Montreal Center
12:13PM 48.1000 -76.6000 351° North 470 541 31,000  Level Montreal Center
12:14PM 48.2500 -76.6167 356° North 470 541 31,000  Level Montreal Center
12:16PM 48.4019 -76.6489 352° North  Level FlightAware Approximate
12:18PM 48.4726 -76.6676 352° North  Level FlightAware Approximate
12:19PM 48.9000 -76.7667 352° North 470 541 31,000  Level Montreal Center
12:20PM 49.0167 -76.7833 355° North 480 552 31,000  Level Montreal Center
12:21PM 49.1500 -76.8167 351° North 470 541 31,000  Level Montreal Center
12:22PM 49.2833 -76.8500 351° North 480 552 31,000  Level Montreal Center
12:23PM 49.3128 -76.8462 352° North  Level FlightAware Approximate
12:23PM 49.4000 -76.8667 355° North 450 518 31,000  Level Montreal Center
12:24PM 49.4429 -76.8750 352° North  Level FlightAware Approximate
12:25PM 49.5730 -76.9039 352° North  Level FlightAware Approximate
12:25PM 49.5518 -76.9001 352° North  Level FlightAware Approximate
12:25PM 49.6667 -76.9333 352° North 450 518 31,000  Level Montreal Center
12:26PM 49.8000 -76.9500 355° North 470 541 31,000  Level Montreal Center
12:27PM 49.9333 -76.9833 351° North 470 541 31,000  Level Montreal Center
12:28PM 50.0667 -77.0167 351° North 470 541 31,000  Level Montreal Center
12:29PM 50.1833 -77.0500 350° North 480 552 31,000  Level Montreal Center
12:30PM 50.3167 -77.0667 355° North 480 552 31,000  Level Montreal Center
12:32PM 50.4689 -77.0907 354° North  Level FlightAware Approximate
12:32PM 50.6000 -77.1000 354° North 480 552 31,000  Level Montreal Center
12:33PM 50.7333 -77.1333 351° North 480 552 31,000  Level Montreal Center
12:35PM 50.8856 -77.1575 354° North  Level FlightAware Approximate
12:35PM 51.0000 -77.2000 354° North 480 552 31,000  Level Montreal Center
12:37PM 51.1539 -77.2007 353° North  Level FlightAware Approximate
12:37PM 51.2667 -77.2333 353° North 480 552 31,000  Level Montreal Center
12:38PM 51.3833 -77.2667 350° North 470 541 31,000  Level Montreal Center
12:39PM 51.5167 -77.2833 356° North 470 541 31,000  Level Montreal Center
12:40PM 51.6500 -77.3167 351° North 470 541 31,000  Level Montreal Center
12:41PM 51.7833 -77.3333 356° North 470 541 31,000  Level Montreal Center
12:42PM 51.9167 -77.3500 356° North 470 541 31,000  Level Montreal Center
12:43PM 52.0333 -77.3833 350° North 470 541 31,000  Level Montreal Center
12:44PM 52.1667 -77.4167 351° North 470 541 31,000  Level Montreal Center
12:46PM 52.3186 -77.4460 353° North  Level FlightAware Approximate
12:52PM 53.2167 -77.6167 353° North 470 541 31,000  Level Montreal Center
12:53PM 53.2302 -77.6265 353° North  Level FlightAware Approximate
12:54PM 53.3604 -77.6529 353° North  Level FlightAware Approximate
12:54PM 53.3633 -77.6898 343° North  Level Estimated
12:55PM 53.4906 -77.6795 353° North  Level FlightAware Approximate
12:55PM 53.6000 -77.7000 343° North 470 541 31,000  Level Montreal Center
12:56PM 53.6208 -77.7062 353° North  Level FlightAware Approximate
12:57PM 53.7509 -77.7331 353° North  Level FlightAware Approximate
12:57PM 53.7466 -77.7740 343° North  Level Estimated
12:58PM 53.8811 -77.7601 353° North  Level FlightAware Approximate
12:58PM 54.0000 -77.8000 343° North 460 529 31,000  Level Montreal Center
12:59PM 54.1167 -77.8000 360° North 470 541 31,000  Level Montreal Center
01:00PM 54.2500 -77.8333 352° North 460 529 31,000  Level Montreal Center
01:01PM 54.2422 -78.1392 343° North  Level Estimated
01:01PM 54.3833 -77.8667 352° North 460 529 31,000  Level Montreal Center
01:03PM 54.5298 -77.9427 343° North  Level Estimated
01:04PM 54.6251 -78.2294 343° North  Level Estimated
01:05PM 54.8833 -77.9833 343° North 470 541 31,000  Level Montreal Center
01:07PM 55.1667 -77.9667 North 480 552 31,000  Level Montreal Center
01:08PM 55.3000 -77.9500 North 490 564 31,000  Level Montreal Center
01:10PM 55.4077 -78.4105 343° North  Level Estimated
01:10PM 55.4539 -77.9181 North  Level FlightAware Approximate
01:11PM 55.5330 -78.4790 343° North  Level Estimated
01:11PM 55.7167 -77.8667 North 490 564 31,000  Level Montreal Center
01:13PM 55.8708 -77.8389 North  Level FlightAware Approximate
01:13PM 55.9667 -77.8333 North 490 564 31,000  Level Montreal Center
01:15PM 56.1208 -77.8048 North  Level FlightAware Approximate
01:16PM 56.3833 -77.7500 North 490 564 31,000  Level Montreal Center
01:17PM 56.3784 -77.7432 North  Level FlightAware Approximate
01:18PM 56.5318 -77.8305 343° North  Level Estimated
01:18PM 56.6500 -77.5667 343° North 500 575 31,000  Level Edmonton Center
01:19PM 56.7833 -77.5333 North 500 575 31,000  Level Edmonton Center
01:20PM 56.9500 -77.6500 339° North 490 564 31,000  Level Montreal Center
01:21PM 57.0833 -77.6333 North 490 564 31,000  Level Montreal Center
01:22PM 57.0454 -77.6284 North  Level FlightAware Approximate
01:22PM 57.2167 -77.6000 North 490 564 31,000  Level Montreal Center
01:23PM 57.3500 -77.5833 North 490 564 31,000  Level Montreal Center
01:25PM 57.6167 -77.5333 North 490 564 31,000  Level Montreal Center
01:26PM 57.7500 -77.5000 North 490 564 31,000  Level Montreal Center
01:27PM 57.8667 -77.3333 37° Northeast 500 575 31,000  Level Edmonton Center
01:29PM 58.1833 -77.4000 354° North 500 575 31,000  Level Montreal Center
01:32PM 58.5500 -77.1667 18° North 500 575 31,000  Level Edmonton Center
01:34PM 58.8667 -77.2667 351° North 500 575 31,000  Level Montreal Center
01:35PM 59.0000 -77.2333 North 500 575 31,000  Level Montreal Center
01:36PM 59.1333 -77.2000 North 500 575 31,000  Level Montreal Center
01:38PM 59.4167 -77.1500 North 500 575 31,000  Level Montreal Center
01:39PM 59.5500 -77.1167 North 500 575 31,000  Level Montreal Center
01:40PM 59.7000 -77.0833 North 500 575 31,000  Level Montreal Center
01:42PM 59.9833 -77.0333 North 500 575 31,000  Level Montreal Center
01:43PM 60.1167 -77.0000 North 490 564 31,000  Level Montreal Center
01:44PM 60.2500 -76.9667 North 490 564 31,000  Level Montreal Center
01:45PM 60.3667 -76.7667 40° Northeast 500 575 31,000  Level Edmonton Center
01:46PM 60.5167 -76.9167 334° Northwest 490 564 31,000  Level Montreal Center
01:47PM 60.6500 -76.8833 North 490 564 31,000  Level Montreal Center
01:48PM 60.8000 -76.8833 360° North 490 564 31,000  Level Montreal Center
01:50PM 61.0667 -76.8167 North 480 552 31,000  Level Montreal Center
01:52PM 61.3000 -76.6000 24° Northeast 490 564 31,000  Level Edmonton Center
01:53PM 61.4500 -76.5833 North 490 564 31,000  Level Edmonton Center
01:55PM 61.7333 -76.7000 349° North 490 564 31,000  Level Montreal Center
01:57PM 62.0167 -76.6333 North 480 552 31,000  Level Montreal Center
01:58PM 62.1500 -76.6333 360° North 480 552 31,000  Level Montreal Center
01:59PM 62.2833 -76.6000 North 480 552 31,000  Level Montreal Center
02:00PM 62.4167 -76.5667 North 480 552 31,000  Level Montreal Center
02:01PM 62.5500 -76.5333 North 480 552 31,000  Level Montreal Center
02:02PM 62.6833 -76.5000 North 480 552 31,000  Level Montreal Center
02:03PM 62.8167 -76.5000 360° North 480 552 31,000  Level Montreal Center
02:05PM 63.0833 -76.4333 North 480 552 31,000  Level Montreal Center
02:06PM 63.2167 -76.4000 North 480 552 31,000  Level Montreal Center
02:07PM 63.3333 -76.3667 North 480 552 31,000  Level Montreal Center
02:08PM 63.4833 -76.3667 360° North 480 552 31,000  Level Montreal Center
02:09PM 63.6000 -76.3333 North 470 541 31,000  Level Montreal Center
02:10PM 63.7333 -76.3000 North 470 541 31,000  Level Montreal Center
02:11PM 63.8667 -76.2500 North 470 541 31,000  Level Montreal Center
02:12PM 64.0000 -76.2667 357° North 470 541 31,000  Level Montreal Center
02:13PM 64.1000 -76.0167 47° Northeast 470 541 31,000  Level Edmonton Center
02:14PM 64.2333 -76.0167 360° North 470 541 31,000  Level Edmonton Center
02:16PM 64.5167 -76.1000 353° North 470 541 31,000  Level Montreal Center
02:17PM 64.6333 -75.9000 36° Northeast 470 541 31,000  Level Edmonton Center
02:19PM 64.8833 -75.8333 North 470 541 31,000  Level Edmonton Center
02:21PM 65.1500 -75.8167 North 470 541 31,000  Level Edmonton Center
02:22PM 65.2833 -75.8667 351° North 470 541 31,000  Level Edmonton Center
02:23PM 65.4167 -75.8833 357° North 470 541 31,000  Level Edmonton Center
02:26PM 65.6806 -75.9919 350° North  Level FlightAware Approximate
02:26PM 65.8000 -75.9667 350° North 470 541 31,000  Level Edmonton Center
02:27PM 65.9333 -75.9500 North 470 541 31,000  Level Edmonton Center
02:28PM 66.0667 -75.9667 357° North 470 541 31,000  Level Edmonton Center
02:30PM 66.3333 -76.0167 356° North 470 541 31,000  Level Edmonton Center
02:31PM 66.4500 -76.0500 353° North 470 541 31,000  Level Edmonton Center
02:32PM 66.5833 -76.0833 354° North 470 541 31,000  Level Edmonton Center
02:33PM 66.7167 -76.1000 357° North 470 541 31,000 300 Level Edmonton Center
02:35PM 66.9833 -76.1500 356° North 470 541 32,000 300 Climbing Edmonton Center
02:36PM 67.1000 -76.1833 354° North 470 541 32,000  Level Edmonton Center
02:38PM 67.3667 -76.2333 356° North 470 541 32,000  Level Edmonton Center
02:41PM 67.6696 -76.3127 354° North  Level FlightAware Approximate
02:41PM 67.7500 -76.2833 354° North 470 541 32,000  Level Edmonton Center
02:42PM 67.8833 -76.3000 357° North 470 541 32,000  Level Edmonton Center
02:45PM 68.1858 -76.3920 354° North  Level FlightAware Approximate
02:49PM 68.8000 -76.5167 353° North 470 541 32,000  Level Edmonton Center
02:52PM 69.2353 -76.7313 353° North  Level FlightAware Approximate
02:52PM 69.0926 -76.7502 344° North  Level Estimated
02:52PM 69.2000 -76.6000 344° North 470 541 32,000  Level Edmonton Center
02:53PM 69.3851 -76.7824 353° North  Level FlightAware Approximate
02:53PM 69.3333 -76.6167 357° North 470 541 32,000  Level Edmonton Center
02:54PM 69.5350 -76.8343 353° North  Level FlightAware Approximate
02:55PM 69.6848 -76.8869 353° North  Level FlightAware Approximate
02:55PM 69.5833 -76.7000 353° North 480 552 32,000  Level Edmonton Center
02:57PM 69.8500 -76.7500 356° North 480 552 32,000  Level Edmonton Center
02:58PM 69.9833 -76.7667 358° North 480 552 32,000  Level Edmonton Center
03:01PM 70.2832 -76.9203 350° North  Level FlightAware Approximate
03:02PM 70.5000 -76.9667 350° North 470 541 32,000  Level Edmonton Center
03:03PM 70.6333 -77.0667 346° North 470 541 32,000  Level Edmonton Center
03:04PM 70.7667 -77.1000 355° North 470 541 32,000  Level Edmonton Center
03:06PM 71.0167 -77.2333 350° North 470 541 32,000  Level Edmonton Center
03:07PM 71.1500 -77.3333 346° North 470 541 32,000  Level Edmonton Center
03:08PM 71.3232 -77.4905 350° North  Level FlightAware Approximate
03:08PM 71.2833 -77.3667 355° North 470 541 32,000  Level Edmonton Center
03:09PM 71.4000 -77.4167 352° North 470 541 32,000  Level Edmonton Center
03:10PM 71.5500 -77.5000 350° North 470 541 32,000 60 Level Edmonton Center
03:13PM 71.8481 -77.6966 348° North  Level FlightAware Approximate
03:20PM 72.8811 -78.4303 348° North  Level FlightAware Approximate
03:21PM 73.0285 -78.5422 348° North  Level FlightAware Approximate
03:22PM 73.1758 -78.6559 347° North  Level FlightAware Approximate
03:23PM 73.3230 -78.7716 347° North  Level FlightAware Approximate
03:24PM 73.4702 -78.8894 347° North  Level FlightAware Approximate
03:25PM 73.6200 -78.9893 350° North  Level FlightAware Approximate
03:26PM 73.7684 -79.0880 349° North  Level FlightAware Approximate
03:27PM 73.9168 -79.1884 349° North  Level FlightAware Approximate
03:28PM 74.0651 -79.2906 349° North  Level FlightAware Approximate
03:29PM 74.2133 -79.3960 349° North  Level FlightAware Approximate
03:30PM 74.3613 -79.5050 349° North  Level FlightAware Approximate
03:31PM 74.5093 -79.6161 349° North  Level FlightAware Approximate
03:32PM 74.6572 -79.7292 349° North  Level FlightAware Approximate
03:33PM 74.8051 -79.8445 348° North  Level FlightAware Approximate
03:34PM 74.9529 -79.9621 348° North  Level FlightAware Approximate
03:35PM 75.0974 -80.1278 341° North  Level FlightAware Approximate
03:36PM 75.2402 -80.3183 341° North  Level FlightAware Approximate
03:37PM 75.3829 -80.5125 341° North  Level FlightAware Approximate
03:38PM 75.5255 -80.7105 341° North  Level FlightAware Approximate
03:39PM 75.6678 -80.9122 341° North  Level FlightAware Approximate
03:40PM 75.8100 -81.1180 340° North  Level FlightAware Approximate
03:40PM 75.0000 -80.0000 341° North 476 548 34,000  Level ETMS Enhanced Traffic Management System
03:41PM 75.9520 -81.3278 340° North  Level FlightAware Approximate
03:42PM 76.0939 -81.5418 340° North  Level FlightAware Approximate
03:43PM 76.2355 -81.7602 340° North  Level FlightAware Approximate
03:44PM 76.3769 -81.9830 340° North  Level FlightAware Approximate
03:45PM 76.5182 -82.2100 339° North  Level FlightAware Approximate
03:46PM 76.1248 -81.5839 340° North 476 548 34,000  Level FlightAware Transoceanic
03:47PM 76.2491 -81.7755 340° North 476 548 34,000  Level FlightAware Transoceanic
03:48PM 76.3733 -81.9706 340° North 476 548 34,000  Level FlightAware Transoceanic
03:49PM 76.4973 -82.1691 339° North 476 548 34,000  Level FlightAware Transoceanic
03:50PM 76.6211 -82.3713 339° North 476 548 34,000  Level FlightAware Transoceanic
03:51PM 76.7448 -82.5772 339° North 476 548 34,000  Level FlightAware Transoceanic
03:52PM 76.8683 -82.7869 339° North 476 548 34,000  Level FlightAware Transoceanic
03:53PM 76.9916 -83.0004 339° North 476 548 34,000  Level FlightAware Transoceanic
03:54PM 77.1147 -83.2180 338° Northwest 476 548 34,000  Level FlightAware Transoceanic
03:55PM 77.2377 -83.4398 338° Northwest 476 548 34,000  Level FlightAware Transoceanic
03:56PM 77.3605 -83.6657 338° Northwest 476 548 34,000  Level FlightAware Transoceanic
03:57PM 77.4831 -83.8960 338° Northwest 476 548 34,000  Level FlightAware Transoceanic
03:58PM 77.6055 -84.1309 337° Northwest 476 548 34,000  Level FlightAware Transoceanic
03:59PM 77.7276 -84.3702 337° Northwest 476 548 34,000  Level FlightAware Transoceanic
04:00PM 77.8496 -84.6144 337° Northwest 476 548 34,000  Level FlightAware Transoceanic
04:01PM 77.9714 -84.8634 337° Northwest 476 548 34,000  Level FlightAware Transoceanic
04:02PM 78.0929 -85.1174 336° Northwest 476 548 34,000  Level FlightAware Transoceanic
04:03PM 78.2142 -85.3766 336° Northwest 476 548 34,000  Level FlightAware Transoceanic
04:04PM 78.3352 -85.6411 336° Northwest 476 548 34,000  Level FlightAware Transoceanic
04:05PM 78.4560 -85.9110 336° Northwest 476 548 34,000  Level FlightAware Transoceanic
04:06PM 78.5766 -86.1866 335° Northwest 476 548 34,000  Level FlightAware Transoceanic
04:07PM 78.6969 -86.4680 335° Northwest 476 548 34,000  Level FlightAware Transoceanic
04:08PM 78.8169 -86.7553 335° Northwest 476 548 34,000  Level FlightAware Transoceanic
04:09PM 78.9366 -87.0488 335° Northwest 476 548 34,000  Level FlightAware Transoceanic
04:10PM 79.0561 -87.3486 334° Northwest 476 548 34,000  Level FlightAware Transoceanic
04:11PM 79.1752 -87.6550 334° Northwest 476 548 34,000  Level FlightAware Transoceanic
04:12PM 79.2941 -87.9681 334° Northwest 476 548 34,000  Level FlightAware Transoceanic
04:13PM 79.4126 -88.2881 333° Northwest 476 548 34,000  Level FlightAware Transoceanic
04:14PM 79.5308 -88.6152 333° Northwest 476 548 34,000  Level FlightAware Transoceanic
04:15PM 79.6486 -88.9498 333° Northwest 476 548 34,000  Level FlightAware Transoceanic
04:16PM 79.7661 -89.2919 332° Northwest 476 548 34,000  Level FlightAware Transoceanic
04:17PM 79.8832 -89.6419 332° Northwest 476 548 34,000  Level FlightAware Transoceanic
04:18PM 80.0166 -90.0517 332° Northwest  Level FlightAware Approximate
04:19PM 80.0306 -90.1271 324° Northwest  Level FlightAware Approximate
04:20PM 80.1529 -90.6448 324° Northwest  Level FlightAware Approximate
04:21PM 80.2745 -91.1753 324° Northwest  Level FlightAware Approximate
04:22PM 80.3951 -91.7190 323° Northwest  Level FlightAware Approximate
04:23PM 80.5149 -92.2764 323° Northwest  Level FlightAware Approximate
04:24PM 80.6341 -92.8460 322° Northwest  Level FlightAware Approximate
04:25PM 80.7529 -93.4256 322° Northwest  Level FlightAware Approximate
04:26PM 80.8707 -94.0199 321° Northwest  Level FlightAware Approximate
04:27PM 80.9876 -94.6297 321° Northwest  Level FlightAware Approximate
04:28PM 81.1034 -95.2552 320° Northwest  Level FlightAware Approximate
04:29PM 81.2182 -95.8971 320° Northwest  Level FlightAware Approximate
04:30PM 81.3318 -96.5557 319° Northwest  Level FlightAware Approximate
04:31PM 81.4443 -97.2316 318° Northwest  Level FlightAware Approximate
04:32PM 81.5556 -97.9253 318° Northwest  Level FlightAware Approximate
04:33PM 81.6656 -98.6372 317° Northwest  Level FlightAware Approximate
04:34PM 81.7743 -99.3680 316° Northwest  Level FlightAware Approximate
04:35PM 81.8817 -100.1180 316° Northwest  Level FlightAware Approximate
04:36PM 81.9877 -100.8880 315° West  Level FlightAware Approximate
04:37PM 82.0922 -101.6782 314° West  Level FlightAware Approximate
04:38PM 82.1951 -102.4894 313° West  Level FlightAware Approximate
04:39PM 82.2965 -103.3219 312° West  Level FlightAware Approximate
04:40PM 82.3963 -104.1763 312° West  Level FlightAware Approximate
04:41PM 82.4943 -105.0531 311° West  Level FlightAware Approximate
04:42PM 82.5905 -105.9527 310° West  Level FlightAware Approximate
04:43PM 82.6849 -106.8757 309° West  Level FlightAware Approximate
04:44PM 82.7774 -107.8224 308° West  Level FlightAware Approximate
04:45PM 82.8678 -108.7933 307° West  Level FlightAware Approximate
04:46PM 82.9562 -109.7887 306° West  Level FlightAware Approximate
04:47PM 83.0424 -110.8089 305° West  Level FlightAware Approximate
04:48PM 83.1264 -111.8543 304° West  Level FlightAware Approximate
04:49PM 83.2081 -112.9251 302° West  Level FlightAware Approximate
04:50PM 83.2872 -114.0220 302° West  Level FlightAware Approximate
04:51PM 83.3638 -115.1446 301° West  Level FlightAware Approximate
04:52PM 83.4379 -116.2928 300° West  Level FlightAware Approximate
04:53PM 83.5093 -117.4667 299° West  Level FlightAware Approximate
04:54PM 83.5779 -118.6660 298° West  Level FlightAware Approximate
04:55PM 83.6436 -119.8906 296° West  Level FlightAware Approximate
04:56PM 83.7065 -121.1402 295° West  Level FlightAware Approximate
04:57PM 83.7663 -122.4142 294° West  Level FlightAware Approximate
04:58PM 83.8230 -123.7121 293° West  Level FlightAware Approximate
04:59PM 83.8765 -125.0333 291° West  Level FlightAware Approximate
05:00PM 83.9267 -126.3770 290° West  Level FlightAware Approximate
05:01PM 83.9735 -127.7422 289° West  Level FlightAware Approximate
05:02PM 84.0169 -129.1280 287° West  Level FlightAware Approximate
05:03PM 84.0567 -130.5331 286° West  Level FlightAware Approximate
05:04PM 84.0930 -131.9562 285° West  Level FlightAware Approximate
05:05PM 84.1256 -133.3959 283° West  Level FlightAware Approximate
05:06PM 84.1545 -134.8508 282° West  Level FlightAware Approximate
05:07PM 84.1796 -136.3191 280° West  Level FlightAware Approximate
05:08PM 84.2008 -137.7991 279° West  Level FlightAware Approximate
05:09PM 84.2182 -139.2890 277° West  Level FlightAware Approximate
05:10PM 84.2317 -140.7868 276° West  Level FlightAware Approximate
05:11PM 84.2751 -142.2280 289° West  Level FlightAware Approximate
05:12PM 84.3203 -143.6811 288° West  Level FlightAware Approximate
05:13PM 84.3619 -145.1566 287° West  Level FlightAware Approximate
05:14PM 84.3998 -146.6529 285° West  Level FlightAware Approximate
05:15PM 84.4337 -148.1685 284° West  Level FlightAware Approximate
05:16PM 84.4638 -149.7016 282° West  Level FlightAware Approximate
05:17PM 84.4899 -151.2502 281° West  Level FlightAware Approximate
05:18PM 84.5120 -152.8124 279° West  Level FlightAware Approximate
05:19PM 84.5299 -154.3860 278° West  Level FlightAware Approximate
05:20PM 84.5438 -155.9687 276° West  Level FlightAware Approximate
05:21PM 84.5534 -157.5582 274° West  Level FlightAware Approximate
05:22PM 84.5589 -159.1522 273° West  Level FlightAware Approximate
05:23PM 84.5602 -160.7481 271° West  Level FlightAware Approximate
05:24PM 84.5574 -162.3436 270° West  Level FlightAware Approximate
05:25PM 84.5503 -163.9362 268° West  Level FlightAware Approximate
05:26PM 84.5390 -165.5235 267° West  Level FlightAware Approximate
05:27PM 84.5236 -167.1030 265° West  Level FlightAware Approximate
05:28PM 84.5041 -168.6725 263° West  Level FlightAware Approximate
05:29PM 84.4746 -170.2177 259° West  Level FlightAware Approximate
05:30PM 84.4398 -171.7423 257° West  Level FlightAware Approximate
05:31PM 84.4011 -173.2469 256° West  Level FlightAware Approximate
05:32PM 84.3587 -174.7299 254° West  Level FlightAware Approximate
05:33PM 84.3125 -176.1900 253° West  Level FlightAware Approximate
05:34PM 84.2627 -177.6256 252° West  Level FlightAware Approximate
05:35PM 84.2094 -179.0358 250° West  Level FlightAware Approximate
05:36PM 84.1527 179.5804 249° West  Level FlightAware Approximate
05:37PM 84.0927 178.2239 247° West  Level FlightAware Approximate
05:38PM 84.0295 176.8953 246° West  Level FlightAware Approximate
05:39PM 83.9631 175.5952 245° Southwest  Level FlightAware Approximate
05:40PM 83.8940 174.3283 243° Southwest  Level FlightAware Approximate
05:41PM 83.8219 173.0903 242° Southwest  Level FlightAware Approximate
05:42PM 83.7471 171.8812 241° Southwest  Level FlightAware Approximate
05:43PM 83.6696 170.7011 240° Southwest  Level FlightAware Approximate
05:44PM 83.5895 169.5500 238° Southwest  Level FlightAware Approximate
05:45PM 83.5069 168.4275 237° Southwest  Level FlightAware Approximate
05:46PM 83.4218 167.3336 236° Southwest  Level FlightAware Approximate
05:47PM 83.3345 166.2678 235° Southwest  Level FlightAware Approximate
05:48PM 83.2449 165.2298 234° Southwest  Level FlightAware Approximate
05:49PM 83.1532 164.2192 233° Southwest  Level FlightAware Approximate
05:50PM 83.0594 163.2355 232° Southwest  Level FlightAware Approximate
05:51PM 82.9637 162.2781 231° Southwest  Level FlightAware Approximate
05:52PM 82.8661 161.3466 230° Southwest  Level FlightAware Approximate
05:53PM 82.7666 160.4403 229° Southwest  Level FlightAware Approximate
05:54PM 82.6659 159.5553 228° Southwest  Level FlightAware Approximate
05:55PM 82.5640 158.6909 228° Southwest  Level FlightAware Approximate
05:56PM 82.4604 157.8500 227° Southwest  Level FlightAware Approximate
05:57PM 82.3553 157.0320 226° Southwest  Level FlightAware Approximate
05:58PM 82.2487 156.2361 225° Southwest  Level FlightAware Approximate
05:59PM 82.1408 155.4608 224° Southwest  Level FlightAware Approximate
06:00PM 82.0316 154.7057 224° Southwest  Level FlightAware Approximate
06:01PM 81.9210 153.9710 223° Southwest  Level FlightAware Approximate
06:02PM 81.8092 153.2560 222° Southwest  Level FlightAware Approximate
06:03PM 81.6962 152.5604 222° Southwest  Level FlightAware Approximate
06:04PM 81.5814 151.8886 220° Southwest  Level FlightAware Approximate
06:05PM 81.4650 151.2384 220° Southwest  Level FlightAware Approximate
06:06PM 81.3475 150.6057 219° Southwest  Level FlightAware Approximate
06:07PM 81.2291 149.9898 219° Southwest  Level FlightAware Approximate
06:08PM 81.1096 149.3903 218° Southwest  Level FlightAware Approximate
06:09PM 80.9893 148.8066 217° Southwest  Level FlightAware Approximate
06:10PM 80.8680 148.2383 217° Southwest  Level FlightAware Approximate
06:11PM 80.7459 147.6848 216° Southwest  Level FlightAware Approximate
06:12PM 80.6230 147.1456 216° Southwest  Level FlightAware Approximate
06:13PM 80.4992 146.6202 215° Southwest  Level FlightAware Approximate
06:14PM 80.3747 146.1084 215° Southwest  Level FlightAware Approximate
06:15PM 80.2495 145.6095 214° Southwest  Level FlightAware Approximate
06:16PM 80.1235 145.1231 214° Southwest  Level FlightAware Approximate
06:17PM 79.9969 144.6490 213° Southwest  Level FlightAware Approximate
06:18PM 79.8696 144.1865 213° Southwest  Level FlightAware Approximate
06:19PM 79.7417 143.7355 212° Southwest  Level FlightAware Approximate
06:20PM 79.6132 143.2955 212° Southwest  Level FlightAware Approximate
06:21PM 79.4841 142.8662 211° Southwest  Level FlightAware Approximate
06:22PM 79.3544 142.4471 211° Southwest  Level FlightAware Approximate
06:23PM 79.2242 142.0381 210° Southwest  Level FlightAware Approximate
06:24PM 79.0935 141.6388 210° Southwest  Level FlightAware Approximate
06:25PM 78.9623 141.2488 210° Southwest  Level FlightAware Approximate
06:26PM 78.8306 140.8678 209° Southwest  Level FlightAware Approximate
06:27PM 78.6984 140.4957 209° Southwest  Level FlightAware Approximate
06:28PM 78.5657 140.1320 209° Southwest  Level FlightAware Approximate
06:29PM 78.4327 139.7762 208° Southwest  Level FlightAware Approximate
06:30PM 78.2992 139.4281 208° Southwest  Level FlightAware Approximate
06:31PM 78.1654 139.0878 208° Southwest  Level FlightAware Approximate
06:32PM 78.0312 138.7550 207° Southwest  Level FlightAware Approximate
06:33PM 77.8965 138.4294 207° Southwest  Level FlightAware Approximate
06:34PM 77.7615 138.1110 207° Southwest  Level FlightAware Approximate
06:35PM 77.6262 137.7993 206° Southwest  Level FlightAware Approximate
06:36PM 77.4905 137.4944 206° Southwest  Level FlightAware Approximate
06:37PM 77.3544 137.1958 206° Southwest  Level FlightAware Approximate
06:38PM 77.2181 136.9036 205° Southwest  Level FlightAware Approximate
06:39PM 77.0814 136.6174 205° Southwest  Level FlightAware Approximate
06:40PM 76.9444 136.3371 205° Southwest  Level FlightAware Approximate
06:41PM 76.8071 136.0625 205° Southwest  Level FlightAware Approximate
06:42PM 76.6695 135.7935 204° Southwest  Level FlightAware Approximate
06:43PM 76.5317 135.5300 204° Southwest  Level FlightAware Approximate
06:44PM 76.3936 135.2716 204° Southwest  Level FlightAware Approximate
06:45PM 76.2552 135.0184 204° Southwest  Level FlightAware Approximate
06:46PM 76.1166 134.7701 203° Southwest  Level FlightAware Approximate
06:47PM 75.9777 134.5266 203° Southwest  Level FlightAware Approximate
06:48PM 75.8386 134.2878 203° Southwest  Level FlightAware Approximate
06:49PM 75.6993 134.0535 203° Southwest  Level FlightAware Approximate
06:50PM 75.5597 133.8237 202° Southwest  Level FlightAware Approximate
06:51PM 75.4199 133.5983 202° Southwest  Level FlightAware Approximate
06:52PM 75.2799 133.3770 202° Southwest  Level FlightAware Approximate
06:53PM 75.1397 133.1597 202° Southwest  Level FlightAware Approximate
06:54PM 74.9993 132.9465 201° Southwest  Level FlightAware Approximate
06:55PM 74.8587 132.7371 201° Southwest  Level FlightAware Approximate
06:56PM 74.7179 132.5315 201° Southwest  Level FlightAware Approximate
06:57PM 74.5769 132.3295 201° Southwest  Level FlightAware Approximate
06:58PM 74.4358 132.1312 201° Southwest  Level FlightAware Approximate
06:59PM 74.2945 131.9358 201° Southwest  Level FlightAware Approximate
07:00PM 74.1533 131.7416 201° Southwest  Level FlightAware Approximate
07:01PM 74.0119 131.5507 200° South  Level FlightAware Approximate
07:02PM 73.8703 131.3630 200° South  Level FlightAware Approximate
07:03PM 73.7286 131.1786 200° South  Level FlightAware Approximate
07:04PM 73.5867 130.9972 200° South  Level FlightAware Approximate
07:05PM 73.4447 130.8189 200° South  Level FlightAware Approximate
07:06PM 73.3025 130.6435 200° South  Level FlightAware Approximate
07:07PM 73.1602 130.4710 199° South  Level FlightAware Approximate
07:08PM 73.0177 130.3013 199° South  Level FlightAware Approximate
07:09PM 72.8746 130.1402 198° South  Level FlightAware Approximate
07:10PM 72.7312 129.9818 198° South  Level FlightAware Approximate
07:11PM 72.5870 129.8250 198° South  Level FlightAware Approximate
07:12PM 72.4426 129.6706 198° South  Level FlightAware Approximate
07:13PM 72.2980 129.5188 198° South  Level FlightAware Approximate
07:14PM 72.1534 129.3693 198° South  Level FlightAware Approximate
07:15PM 72.0086 129.2221 197° South  Level FlightAware Approximate
07:16PM 71.8637 129.0772 197° South  Level FlightAware Approximate
07:17PM 71.7188 128.9345 197° South  Level FlightAware Approximate
07:18PM 71.5688 128.9150 178° South  Level FlightAware Approximate
07:19PM 71.4173 128.9347 178° South  Level FlightAware Approximate
07:20PM 71.2657 128.9540 178° South  Level FlightAware Approximate
07:21PM 71.1142 128.9730 178° South  Level FlightAware Approximate
07:22PM 70.9626 128.9917 178° South  Level FlightAware Approximate
07:23PM 70.8110 129.0102 178° South  Level FlightAware Approximate
07:24PM 70.6595 129.0284 178° South  Level FlightAware Approximate
07:25PM 70.5079 129.0462 178° South  Level FlightAware Approximate
07:26PM 70.3564 129.0639 178° South  Level FlightAware Approximate
07:27PM 70.2048 129.0813 178° South  Level FlightAware Approximate
07:28PM 70.0532 129.0984 178° South  Level FlightAware Approximate
07:29PM 69.9017 129.1152 178° South  Level FlightAware Approximate
07:30PM 69.7501 129.1319 178° South  Level FlightAware Approximate
07:31PM 69.5985 129.1483 178° South  Level FlightAware Approximate
07:32PM 69.4470 129.1644 178° South  Level FlightAware Approximate
07:33PM 69.2954 129.1803 178° South  Level FlightAware Approximate
07:34PM 69.1438 129.1969 178° South  Level FlightAware Approximate
07:35PM 68.9923 129.2133 178° South  Level FlightAware Approximate
07:36PM 68.8407 129.2296 178° South  Level FlightAware Approximate
07:37PM 68.6891 129.2456 178° South  Level FlightAware Approximate
07:38PM 68.5376 129.2615 178° South  Level FlightAware Approximate
07:39PM 68.3860 129.2771 178° South  Level FlightAware Approximate
07:40PM 68.2344 129.2925 178° South  Level FlightAware Approximate
07:41PM 68.0829 129.3077 178° South  Level FlightAware Approximate
07:42PM 67.9313 129.3227 178° South  Level FlightAware Approximate
07:43PM 67.7797 129.3375 178° South  Level FlightAware Approximate
07:44PM 67.6282 129.3520 178° South  Level FlightAware Approximate
07:45PM 67.4766 129.3656 178° South  Level FlightAware Approximate
07:46PM 67.3250 129.3790 178° South  Level FlightAware Approximate
07:47PM 67.1734 129.3922 178° South  Level FlightAware Approximate
07:48PM 67.0218 129.4053 178° South  Level FlightAware Approximate
07:49PM 66.8702 129.4182 178° South  Level FlightAware Approximate
07:50PM 66.7186 129.4310 178° South  Level FlightAware Approximate
07:51PM 66.5670 129.4436 178° South  Level FlightAware Approximate
07:52PM 66.4154 129.4560 178° South  Level FlightAware Approximate
07:53PM 66.2638 129.4683 178° South  Level FlightAware Approximate
07:54PM 66.1122 129.4805 178° South  Level FlightAware Approximate
07:55PM 65.9606 129.4925 178° South  Level FlightAware Approximate
07:56PM 65.8090 129.5044 178° South  Level FlightAware Approximate
07:57PM 65.6574 129.5161 178° South  Level FlightAware Approximate
07:58PM 65.5058 129.5281 178° South  Level FlightAware Approximate
07:59PM 65.3542 129.5400 178° South  Level FlightAware Approximate
08:00PM 65.2027 129.5518 178° South  Level FlightAware Approximate
08:01PM 65.0510 129.5634 178° South  Level FlightAware Approximate
08:02PM 64.8995 129.5749 178° South  Level FlightAware Approximate
08:03PM 64.7478 129.5863 178° South  Level FlightAware Approximate
08:04PM 64.5963 129.5976 178° South  Level FlightAware Approximate
08:05PM 64.4446 129.6087 178° South  Level FlightAware Approximate
08:06PM 64.2931 129.6197 178° South  Level FlightAware Approximate
08:07PM 64.1414 129.6306 178° South  Level FlightAware Approximate
08:08PM 63.9898 129.6413 178° South  Level FlightAware Approximate
08:09PM 63.8382 129.6520 178° South  Level FlightAware Approximate
08:10PM 63.6866 129.6624 178° South  Level FlightAware Approximate
08:11PM 63.5350 129.6728 178° South  Level FlightAware Approximate
08:12PM 63.3834 129.6830 178° South  Level FlightAware Approximate
08:13PM 63.2320 129.6932 178° South  Level FlightAware Approximate
08:14PM 63.0806 129.7032 178° South  Level FlightAware Approximate
08:15PM 62.9291 129.7131 178° South  Level FlightAware Approximate
08:16PM 62.7777 129.7229 178° South  Level FlightAware Approximate
08:17PM 62.6263 129.7326 178° South  Level FlightAware Approximate
08:18PM 62.4748 129.7422 178° South  Level FlightAware Approximate
08:19PM 62.3234 129.7518 178° South  Level FlightAware Approximate
08:20PM 62.1720 129.7612 178° South  Level FlightAware Approximate
08:21PM 62.0228 129.7309 196° South  Level FlightAware Approximate
08:22PM 61.8768 129.6450 195° South  Level FlightAware Approximate
08:23PM 61.7307 129.5600 195° South  Level FlightAware Approximate
08:24PM 61.5846 129.4758 195° South  Level FlightAware Approximate
08:25PM 61.4384 129.3923 195° South  Level FlightAware Approximate
08:26PM 61.2922 129.3097 195° South  Level FlightAware Approximate
08:27PM 61.1459 129.2278 195° South  Level FlightAware Approximate
08:28PM 60.9996 129.1467 195° South  Level FlightAware Approximate
08:29PM 60.8532 129.0663 195° South  Level FlightAware Approximate
08:30PM 60.7068 128.9867 195° South  Level FlightAware Approximate
08:31PM 60.5604 128.9077 195° South  Level FlightAware Approximate
08:32PM 60.4138 128.8295 195° South  Level FlightAware Approximate
08:33PM 60.2673 128.7520 195° South  Level FlightAware Approximate
08:34PM 60.1204 128.6777 194° South  Level FlightAware Approximate
08:35PM 59.9731 128.6062 194° South  Level FlightAware Approximate
08:36PM 59.8259 128.5354 194° South  Level FlightAware Approximate
08:37PM 59.6786 128.4651 194° South  Level FlightAware Approximate
08:38PM 59.5312 128.3955 193° South  Level FlightAware Approximate
08:39PM 59.3839 128.3265 193° South  Level FlightAware Approximate
08:40PM 59.2364 128.2581 193° South  Level FlightAware Approximate
08:41PM 59.0890 128.1902 193° South  Level FlightAware Approximate
08:42PM 58.9415 128.1230 193° South  Level FlightAware Approximate
08:43PM 58.7940 128.0563 193° South  Level FlightAware Approximate
08:44PM 58.6464 127.9902 193° South  Level FlightAware Approximate
08:45PM 58.4988 127.9246 193° South  Level FlightAware Approximate
08:46PM 58.3512 127.8596 193° South  Level FlightAware Approximate
08:47PM 58.2036 127.7951 193° South  Level FlightAware Approximate
08:48PM 58.0559 127.7312 193° South  Level FlightAware Approximate
08:49PM 57.9065 127.6887 184° South  Level FlightAware Approximate
08:50PM 57.7554 127.6666 184° South  Level FlightAware Approximate
08:51PM 57.6044 127.6446 184° South  Level FlightAware Approximate
08:52PM 57.4534 127.6229 184° South  Level FlightAware Approximate
08:53PM 57.3023 127.6013 184° South  Level FlightAware Approximate
08:54PM 57.1513 127.5799 184° South  Level FlightAware Approximate
08:55PM 57.0002 127.5587 184° South  Level FlightAware Approximate
08:56PM 56.8492 127.5377 184° South  Level FlightAware Approximate
08:57PM 56.6981 127.5168 184° South  Level FlightAware Approximate
08:58PM 56.5470 127.4961 184° South  Level FlightAware Approximate
08:59PM 56.3960 127.4755 184° South  Level FlightAware Approximate
09:00PM 56.2449 127.4551 184° South  Level FlightAware Approximate
09:01PM 56.0938 127.4349 184° South  Level FlightAware Approximate
09:02PM 55.9427 127.4148 184° South  Level FlightAware Approximate
09:03PM 55.7916 127.3949 184° South  Level FlightAware Approximate
09:04PM 55.6405 127.3752 184° South  Level FlightAware Approximate
09:05PM 55.4895 127.3556 184° South  Level FlightAware Approximate
09:06PM 55.3384 127.3361 184° South  Level FlightAware Approximate
09:07PM 55.1870 127.3249 182° South  Level FlightAware Approximate
09:08PM 55.0356 127.3151 182° South  Level FlightAware Approximate
09:09PM 54.8843 127.3054 182° South  Level FlightAware Approximate
09:10PM 54.7329 127.2947 183° South  Level FlightAware Approximate
09:11PM 54.5815 127.2828 183° South  Level FlightAware Approximate
09:12PM 54.4302 127.2711 183° South  Level FlightAware Approximate
09:13PM 54.2789 127.2594 183° South  Level FlightAware Approximate
09:14PM 54.1275 127.2478 183° South  Level FlightAware Approximate
09:15PM 53.9762 127.2362 183° South  Level FlightAware Approximate
09:16PM 53.8248 127.2248 183° South  Level FlightAware Approximate
09:17PM 53.6740 127.2281 171° South  Level FlightAware Approximate
09:18PM 53.5243 127.2680 171° South  Level FlightAware Approximate
09:19PM 53.3747 127.3077 171° South  Level FlightAware Approximate
09:20PM 53.2251 127.3470 171° South  Level FlightAware Approximate
09:21PM 53.0754 127.3861 171° South  Level FlightAware Approximate
09:22PM 52.9257 127.4249 171° South  Level FlightAware Approximate
09:23PM 52.7760 127.4635 171° South  Level FlightAware Approximate
09:24PM 52.6263 127.5019 171° South  Level FlightAware Approximate
09:25PM 52.4767 127.5417 171° South  Level FlightAware Approximate
09:26PM 52.3272 127.5812 171° South  Level FlightAware Approximate
09:27PM 52.1776 127.6204 171° South  Level FlightAware Approximate
09:28PM 52.0280 127.6594 171° South  Level FlightAware Approximate
09:29PM 51.8769 127.6667 180° South  Level FlightAware Approximate
09:30PM 51.7254 127.6667 180° South  Level FlightAware Approximate
09:31PM 51.5739 127.6667 180° South  Level FlightAware Approximate
09:32PM 51.4224 127.6667 180° South  Level FlightAware Approximate
09:33PM 51.2716 127.6544 190° South  Level FlightAware Approximate
09:34PM 51.1222 127.6137 190° South  Level FlightAware Approximate
09:35PM 50.9729 127.5734 190° South  Level FlightAware Approximate
09:36PM 50.8235 127.5333 190° South  Level FlightAware Approximate
09:37PM 50.6741 127.4935 190° South  Level FlightAware Approximate
09:38PM 50.5247 127.4539 190° South  Level FlightAware Approximate
09:39PM 50.3756 127.4128 198° South  Level FlightAware Approximate
09:40PM 50.2351 127.4068 152° Southeast  Level FlightAware Approximate
09:41PM 50.1012 127.5176 152° Southeast  Level FlightAware Approximate
09:42PM 49.9673 127.6277 152° Southeast  Level FlightAware Approximate
09:43PM 49.8332 127.7373 152° Southeast  Level FlightAware Approximate
09:44PM 49.6990 127.8462 152° Southeast  Level FlightAware Approximate
09:45PM 49.5648 127.9546 152° Southeast  Level FlightAware Approximate
09:46PM 49.4304 128.0623 153° Southeast  Level FlightAware Approximate
09:47PM 49.2958 128.1691 153° Southeast  Level FlightAware Approximate
09:48PM 49.1612 128.2753 153° Southeast  Level FlightAware Approximate
09:49PM 49.0264 128.3810 153° Southeast  Level FlightAware Approximate
09:50PM 48.8915 128.4861 153° Southeast  Level FlightAware Approximate
09:51PM 48.7566 128.5907 153° Southeast  Level FlightAware Approximate
09:52PM 48.6215 128.6947 153° Southeast  Level FlightAware Approximate
09:53PM 48.4864 128.7981 153° Southeast  Level FlightAware Approximate
09:54PM 48.3511 128.9010 153° Southeast  Level FlightAware Approximate
09:55PM 48.2158 129.0033 153° Southeast  Level FlightAware Approximate
09:56PM 48.0804 129.1051 153° Southeast  Level FlightAware Approximate
09:57PM 47.9449 129.2063 153° Southeast  Level FlightAware Approximate
09:58PM 47.8093 129.3071 153° Southeast  Level FlightAware Approximate
09:59PM 47.6736 129.4073 154° Southeast  Level FlightAware Approximate
10:00PM 47.5378 129.5070 154° Southeast  Level FlightAware Approximate
10:01PM 47.4020 129.6062 154° Southeast  Level FlightAware Approximate
10:02PM 47.2660 129.7048 154° Southeast  Level FlightAware Approximate
10:03PM 47.1300 129.8030 154° Southeast  Level FlightAware Approximate
10:04PM 46.9939 129.9006 154° Southeast  Level FlightAware Approximate
10:05PM 46.8577 129.9978 154° Southeast  Level FlightAware Approximate
10:06PM 46.7215 130.0944 154° Southeast  Level FlightAware Approximate
10:07PM 46.5851 130.1906 154° Southeast  Level FlightAware Approximate
10:08PM 46.4487 130.2863 154° Southeast  Level FlightAware Approximate
10:09PM 46.3122 130.3815 154° Southeast  Level FlightAware Approximate
10:10PM 46.1756 130.4763 154° Southeast  Level FlightAware Approximate
10:11PM 46.0392 130.5703 154° Southeast  Level FlightAware Approximate
10:12PM 45.9028 130.6639 154° Southeast  Level FlightAware Approximate
10:13PM 45.7663 130.7570 155° Southeast  Level FlightAware Approximate
10:14PM 45.6297 130.8497 155° Southeast  Level FlightAware Approximate
10:15PM 45.4931 130.9419 155° Southeast  Level FlightAware Approximate
10:16PM 45.3564 131.0337 155° Southeast  Level FlightAware Approximate
10:17PM 45.2196 131.1250 155° Southeast  Level FlightAware Approximate
10:18PM 45.0827 131.2159 155° Southeast  Level FlightAware Approximate
10:19PM 44.9458 131.3064 155° Southeast  Level FlightAware Approximate
10:20PM 44.8088 131.3964 155° Southeast  Level FlightAware Approximate
10:21PM 44.6717 131.4860 155° Southeast  Level FlightAware Approximate
10:22PM 44.5345 131.5752 155° Southeast  Level FlightAware Approximate
10:23PM 44.3973 131.6640 155° Southeast  Level FlightAware Approximate
10:24PM 44.2600 131.7523 155° Southeast  Level FlightAware Approximate
10:25PM 44.1227 131.8402 155° Southeast  Level FlightAware Approximate
10:26PM 43.9852 131.9277 155° Southeast  Level FlightAware Approximate
10:27PM 43.8478 132.0149 155° Southeast  Level FlightAware Approximate
10:28PM 43.7102 132.1016 155° Southeast  Level FlightAware Approximate
10:29PM 43.5726 132.1879 156° South  Level FlightAware Approximate
10:30PM 43.4349 132.2738 156° South  Level FlightAware Approximate
10:31PM 43.2972 132.3594 156° South  Level FlightAware Approximate
10:32PM 43.1594 132.4445 156° South  Level FlightAware Approximate
10:33PM 43.0215 132.5293 156° South  Level FlightAware Approximate
10:34PM 42.8835 132.6137 156° South  Level FlightAware Approximate
10:35PM 42.7455 132.6977 156° South  Level FlightAware Approximate
10:36PM 42.6075 132.7813 156° South  Level FlightAware Approximate
10:37PM 42.4694 132.8646 156° South  Level FlightAware Approximate
10:38PM 42.3312 132.9475 156° South  Level FlightAware Approximate
10:39PM 42.1929 133.0300 156° South  Level FlightAware Approximate
10:40PM 42.0546 133.1122 156° South  Level FlightAware Approximate
10:41PM 41.9163 133.1940 156° South  Level FlightAware Approximate
10:42PM 41.7779 133.2755 156° South  Level FlightAware Approximate
10:43PM 41.6394 133.3566 156° South  Level FlightAware Approximate
10:44PM 41.5009 133.4374 156° South  Level FlightAware Approximate
10:45PM 41.3623 133.5178 156° South  Level FlightAware Approximate
10:46PM 41.2237 133.5979 157° South  Level FlightAware Approximate
10:47PM 41.0850 133.6776 157° South  Level FlightAware Approximate
10:48PM 40.9462 133.7571 157° South  Level FlightAware Approximate
10:49PM 40.8074 133.8361 157° South  Level FlightAware Approximate
10:50PM 40.6685 133.9149 157° South  Level FlightAware Approximate
10:51PM 40.5296 133.9933 157° South  Level FlightAware Approximate
10:52PM 40.3907 134.0714 157° South  Level FlightAware Approximate
10:53PM 40.2517 134.1492 157° South  Level FlightAware Approximate
10:54PM 40.1126 134.2266 157° South  Level FlightAware Approximate
10:55PM 39.9735 134.3037 157° South  Level FlightAware Approximate
10:56PM 39.8343 134.3806 157° South  Level FlightAware Approximate
10:57PM 39.6951 134.4571 157° South  Level FlightAware Approximate
10:58PM 39.5558 134.5333 157° South  Level FlightAware Approximate
10:59PM 39.4165 134.6092 157° South  Level FlightAware Approximate
11:00PM 39.2774 134.6855 157° South  Level FlightAware Approximate
11:01PM 39.1382 134.7615 157° South  Level FlightAware Approximate
11:02PM 38.9990 134.8372 157° South  Level FlightAware Approximate
11:03PM 38.8597 134.9126 157° South  Level FlightAware Approximate
11:04PM 38.7203 134.9877 157° South  Level FlightAware Approximate
11:05PM 38.5810 135.0625 157° South  Level FlightAware Approximate
11:06PM 38.4415 135.1370 157° South  Level FlightAware Approximate
11:07PM 38.3021 135.2112 157° South  Level FlightAware Approximate
11:08PM 38.1625 135.2852 157° South  Level FlightAware Approximate
11:09PM 38.0229 135.3589 157° South  Level FlightAware Approximate
11:10PM 37.8833 135.4322 157° South  Level FlightAware Approximate
11:11PM 37.7437 135.5053 158° South  Level FlightAware Approximate
11:12PM 37.6040 135.5782 158° South  Level FlightAware Approximate
11:13PM 37.4642 135.6507 158° South  Level FlightAware Approximate
11:14PM 37.3244 135.7230 158° South  Level FlightAware Approximate
11:15PM 37.1846 135.7950 158° South  Level FlightAware Approximate
11:16PM 37.0447 135.8668 158° South  Level FlightAware Approximate
11:17PM 36.9048 135.9383 158° South  Level FlightAware Approximate
11:18PM 36.7648 136.0095 158° South  Level FlightAware Approximate
11:19PM 36.6248 136.0804 158° South  Level FlightAware Approximate
11:20PM 36.4847 136.1512 158° South  Level FlightAware Approximate
11:21PM 36.3446 136.2216 158° South  Level FlightAware Approximate
11:22PM 36.2045 136.2918 158° South  Level FlightAware Approximate
11:23PM 36.0643 136.3618 158° South  Level FlightAware Approximate
11:24PM 35.9241 136.4315 158° South  Level FlightAware Approximate
11:25PM 35.7838 136.5009 158° South  Level FlightAware Approximate
11:26PM 35.6435 136.5701 158° South  Level FlightAware Approximate
11:27PM 35.5027 136.6375 159° South  Level FlightAware Approximate
11:28PM 35.3617 136.7043 159° South  Level FlightAware Approximate
11:29PM 35.2207 136.7708 159° South  Level FlightAware Approximate
11:30PM 35.0796 136.8372 159° South  Level FlightAware Approximate
11:31PM 34.9380 136.9017 160° South  Level FlightAware Approximate
11:32PM 34.8900 136.8462 288° West  Level FlightAware Approximate
11:33PM 34.9372 136.6711 291° West  Level FlightAware Approximate
11:34PM 34.9909 136.4987 291° West  Level FlightAware Approximate
11:35PM 35.0444 136.3262 291° West  Level FlightAware Approximate
11:36PM 35.0987 136.1538 292° West  Level FlightAware Approximate
11:37PM 35.1523 135.9811 290° West  Level FlightAware Approximate
11:38PM 35.2040 135.8073 290° West  Level FlightAware Approximate
11:39PM 35.2555 135.6334 290° West  Level FlightAware Approximate
11:40PM 35.3068 135.4592 290° West  Level FlightAware Approximate
11:41PM 35.3578 135.2848 290° West  Level FlightAware Approximate
11:42PM 35.4085 135.1102 290° West  Level FlightAware Approximate
11:43PM 35.4580 134.9350 287° West  Level FlightAware Approximate
11:44PM 35.5025 134.7576 287° West  Level FlightAware Approximate
11:45PM 35.5467 134.5800 287° West  Level FlightAware Approximate
11:46PM 35.5956 134.4043 289° West  Level FlightAware Approximate
11:47PM 35.6447 134.2284 289° West  Level FlightAware Approximate
11:48PM 35.6936 134.0524 289° West  Level FlightAware Approximate
11:49PM 35.7422 133.8761 289° West  Level FlightAware Approximate
11:50PM 35.7905 133.6996 289° West  Level FlightAware Approximate
11:51PM 35.8386 133.5229 289° West  Level FlightAware Approximate
11:52PM 35.8864 133.3460 288° West  Level FlightAware Approximate
11:53PM 35.9340 133.1689 288° West  Level FlightAware Approximate
11:54PM 35.9813 132.9916 288° West  Level FlightAware Approximate
11:55PM 36.0283 132.8141 288° West  Level FlightAware Approximate
11:56PM 36.0751 132.6363 288° West  Level FlightAware Approximate
11:57PM 36.1216 132.4583 288° West  Level FlightAware Approximate
11:58PM 36.1679 132.2802 288° West  Level FlightAware Approximate
11:59PM 36.2138 132.1018 288° West  Level FlightAware Approximate
12:00AM 36.2596 131.9232 288° West  Level FlightAware Approximate
12:01AM 36.3050 131.7444 288° West  Level FlightAware Approximate
12:02AM 36.3502 131.5654 287° West  Level FlightAware Approximate
12:03AM 36.3952 131.3862 287° West  Level FlightAware Approximate
12:04AM 36.4400 131.2068 287° West  Level FlightAware Approximate
12:05AM 36.4846 131.0273 287° West  Level FlightAware Approximate
12:06AM 36.5289 130.8475 287° West  Level FlightAware Approximate
12:07AM 36.5729 130.6675 287° West  Level FlightAware Approximate
12:08AM 36.6167 130.4873 287° West  Level FlightAware Approximate
12:09AM 36.6601 130.3074 287° West  Level FlightAware Approximate
12:10AM 36.7032 130.1272 287° West  Level FlightAware Approximate
12:11AM 36.7460 129.9469 287° West  Level FlightAware Approximate
12:12AM 36.7886 129.7663 286° West  Level FlightAware Approximate
12:13AM 36.8310 129.5854 286° West  Level FlightAware Approximate
12:14AM 36.8730 129.4042 286° West  Level FlightAware Approximate
12:15AM 36.9148 129.2228 286° West  Level FlightAware Approximate
12:16AM 36.9563 129.0412 286° West  Level FlightAware Approximate
12:17AM 36.9976 128.8595 286° West  Level FlightAware Approximate
12:18AM 37.0386 128.6775 286° West  Level FlightAware Approximate
12:19AM 37.0793 128.4954 286° West  Level FlightAware Approximate
12:20AM 37.1197 128.3130 286° West  Level FlightAware Approximate
12:21AM 37.1598 128.1305 285° West  Level FlightAware Approximate
12:22AM 37.1996 127.9477 285° West  Level FlightAware Approximate
12:23AM 37.2392 127.7648 285° West  Level FlightAware Approximate
12:24AM 37.2785 127.5817 285° West  Level FlightAware Approximate
12:25AM 37.3175 127.3984 285° West  Level FlightAware Approximate
12:26AM 37.3562 127.2149 285° West  Level FlightAware Approximate
12:27AM 37.3947 127.0312 285° West  Level FlightAware Approximate
12:28AM 37.4328 126.8473 285° West  Level FlightAware Approximate
12:29AM 37.4707 126.6632 285° West  Level FlightAware Approximate
12:30AM 37.5083 126.4790 284° West  Level FlightAware Approximate
12:31AM 37.5456 126.2945 284° West  Level FlightAware Approximate
12:32AM 37.5826 126.1099 284° West  Level FlightAware Approximate
12:33AM 37.6193 125.9251 284° West  Level FlightAware Approximate
12:33AM 33.7930 123.4840 284° West 486 559 37,100  Level FlightAware
12:34AM 37.6557 125.7401 284° West  Level FlightAware Approximate
12:34AM 33.7080 123.4850 179° South 486 559 37,100  Level FlightAware
12:34AM 33.6180 123.4860 179° South 486 559 37,100  Level FlightAware
12:35AM 33.5420 123.4870 179° South 486 559 37,100  Level FlightAware
12:36AM 33.3990 123.4860 180° South 501 577 37,100  Level FlightAware
12:37AM 33.3060 123.4860 180° South 502 578 37,100  Level FlightAware
12:37AM 33.2140 123.4870 179° South 495 570 37,100  Level FlightAware
12:38AM 33.1140 123.4870 180° South 496 571 37,100  Level FlightAware
12:39AM 33.0420 123.4880 179° South 496 571 37,100 -660 Level FlightAware
12:39AM 32.9110 123.4880 180° South 502 578 36,200 -1,080 Descending FlightAware
12:40AM 32.8220 123.4880 180° South 501 577 35,500 -1,140 Descending FlightAware
12:41AM 32.7250 123.4880 180° South 498 573 34,700 -780 Descending FlightAware
12:42AM 32.6210 123.4900 179° South 495 570 34,400 -960 Descending FlightAware
12:42AM 32.4970 123.4890 180° South 481 554 33,100 -900 Descending FlightAware
12:43AM 32.3960 123.4890 180° South 480 552 33,000 -120 Descending FlightAware
12:44AM 32.3040 123.4900 179° South 480 552 33,000  Level FlightAware
12:45AM 32.2140 123.4900 180° South 480 552 33,000  Level FlightAware
12:45AM 32.1160 123.4900 180° South 481 554 33,000  Level FlightAware
12:46AM 31.9980 123.4920 179° South 481 554 33,000  Level FlightAware
12:47AM 31.9010 123.4920 180° South 482 555 33,000  Level FlightAware
12:48AM 31.8250 123.4940 179° South 482 555 33,000  Level FlightAware
12:48AM 31.7500 123.4950 179° South 482 555 33,000  Level FlightAware
12:49AM 31.6740 123.4970 179° South 482 555 33,000  Level FlightAware
12:50AM 31.5790 123.4990 179° South 482 555 33,000  Level FlightAware
12:50AM 31.5030 123.5000 179° South 482 555 33,000 -1,560 Level FlightAware
12:51AM 31.4680 123.3330 256° West 28,000 -1,680 Descending FlightAware
12:54AM 31.3730 122.8964 258° West  Level FlightAware Approximate
12:55AM 31.3414 122.7236 257° West  Level FlightAware Approximate
12:56AM 31.3093 122.5509 258° West  Level FlightAware Approximate
12:57AM 31.2684 122.3811 253° West  Level FlightAware Approximate
12:58AM 31.2333 122.2108 270° West  Level FlightAware Approximate
12:59AM 31.1956 122.0403 259° West  Level FlightAware Approximate
01:00AM 31.1485 121.8741 259° West  Level FlightAware Approximate
01:00AM 31.5720 122.4910 259° West 345 397 17,400  Level FlightAware
01:00AM 31.5850 122.5340 70° East 343 395 16,900 -1,440 Descending FlightAware
01:01AM 31.5680 122.5870 111° Southeast 335 386 16,100 -720 Descending FlightAware
01:02AM 31.5290 122.6370 132° Southeast 333 383 16,000 -1,500 Descending FlightAware
01:02AM 31.4620 122.5660 222° Southwest 333 383 14,000 -1,920 Descending FlightAware
01:03AM 31.4280 122.5280 224° Southwest 313 360 13,800 -240 Descending FlightAware
01:03AM 31.3940 122.4920 222° Southwest 313 360 13,800 -540 Level FlightAware
01:04AM 31.3310 122.4210 224° Southwest 313 360 13,000 -480 Descending FlightAware
01:05AM 31.2950 122.3820 223° Southwest 313 360 13,000  Level FlightAware
01:06AM 31.2590 122.3420 224° Southwest 313 360 13,000 -2,880 Level FlightAware
01:06AM 31.3070 122.2660 306° West 295 339 10,400 -2,640 Descending FlightAware
01:07AM 31.2940 122.2040 256° West 295 339 10,400  Level FlightAware
01:07AM 31.2830 122.1510 256° West 295 339 10,400 -1,980 Level FlightAware
01:09AM 31.2590 122.0180 258° West 288 331 6,800 -2,280 Descending FlightAware
01:09AM 31.2530 121.9830 259° West 288 331 6,800 -1,380 Level FlightAware
01:10AM 31.2640 121.9150 281° West 288 331 5,200 -1,380 Descending FlightAware
01:10AM 31.2580 121.8800 259° West 288 331 5,200 -1,080 Level FlightAware
01:11AM 31.3210 121.8960 12° North 293 337 4,300 -1,200 Descending FlightAware
01:11AM 31.3580 121.9120 20° North 227 261 4,000 -480 Descending FlightAware
01:12AM 31.3880 121.9240 19° North 198 228 3,800 -540 Descending FlightAware
01:12AM 31.4110 121.9130 338° Northwest 199 229 3,500 -780 Descending FlightAware
01:12AM 31.4160 121.9030 300° West 200 230 3,300 -960 Descending FlightAware
01:13AM 31.4170 121.8900 275° West 202 232 3,100 -1,380 Descending FlightAware
01:13AM 31.4160 121.8650 267° West 201 231 2,500 -1,140 Descending FlightAware
01:13AM 31.4160 121.8310 270° West 195 224 2,100 -600 Descending FlightAware
01:14AM 31.4150 121.7960 268° West 193 222 1,900 -240 Descending FlightAware
01:14AM 31.4140 121.7650 268° West 193 222 1,900  Level FlightAware
01:15AM 31.4140 121.7590 270° West 193 222 1,900  Level FlightAware
01:15AM 31.4070 121.7420 244° Southwest 176 203 1,900  Level FlightAware
01:15AM 31.3970 121.7360 207° Southwest 172 198 1,900  Level FlightAware
01:15AM 31.3790 121.7310 193° South 180 207 1,900  Level FlightAware
01:16AM 31.3640 121.7340 170° South 167 192 1,900  Level FlightAware
01:16AM 31.3450 121.7410 163° South 174 200 1,900  Level FlightAware
01:17AM 31.3190 121.7510 162° South 174 200 1,900  Level FlightAware
01:17AM 31.2900 121.7620 162° South 174 200 1,900  Level FlightAware
01:18AM 31.2640 121.7720 162° South 168 193 1,900 -360 Level FlightAware
01:18AM 31.2460 121.7790 162° South 169 194 1,600 -780 Descending FlightAware
01:19AM 31.2250 121.7870 162° South 151 174 1,200 -420 Descending FlightAware
01:19AM 31.2090 121.7930 162° South 135 155 1,200 -600 Level FlightAware
01:20AM 31.1850 121.8020 162° South 123 142 500 -1,020 Descending FlightAware
01:20AM 31.1750 121.8060 161° South 123 142 300 -300 Descending FlightAware
01:21AM 31.1630 121.8110 160° South 123 142 300  Level FlightAware
01:23AM 31.1428 121.7924 259° West  Level Estimated
01:24AM 31.1428 121.7924 259° West  Level Estimated
01:25AM 31.1428 121.7924 259° West  Level Estimated
01:26AM 31.1428 121.7924 259° West  Level Estimated
01:27AM 31.1428 121.7924 259° West  Level Estimated